sensor_id;sensor_type;location;lat;lon;timestamp;temperature;humidity
39371;DHT22;25099;51.946;4.838;2023-04-03T00:01:10;8.10;99.90
39371;DHT22;25099;51.946;4.838;2023-04-03T00:03:36;8.00;99.90
39371;DHT22;25099;51.946;4.838;2023-04-03T00:06:02;8.10;99.90
39371;DHT22;25099;51.946;4.838;2023-04-03T00:08:28;8.00;99.90
39371;DHT22;25099;51.946;4.838;2023-04-03T00:10:56;8.00;99.90
39371;DHT22;25099;51.946;4.838;2023-04-03T00:13:23;7.90;99.90
39371;DHT22;25099;51.946;4.838;2023-04-03T00:15:48;7.90;99.90
39371;DHT22;25099;51.946;4.838;2023-04-03T00:18:14;8.00;99.90
39371;DHT22;25099;51.946;4.838;2023-04-03T00:20:40;8.00;99.90
39371;DHT22;25099;51.946;4.838;2023-04-03T00:23:06;7.90;99.90
39371;DHT22;25099;51.946;4.838;2023-04-03T00:25:31;7.90;99.90
39371;DHT22;25099;51.946;4.838;2023-04-03T00:27:57;7.90;99.90
39371;DHT22;25099;51.946;4.838;2023-04-03T00:30:24;7.90;99.90
39371;DHT22;25099;51.946;4.838;2023-04-03T00:32:50;7.90;99.90
39371;DHT22;25099;51.946;4.838;2023-04-03T00:35:17;7.80;99.90
39371;DHT22;25099;51.946;4.838;2023-04-03T00:37:43;7.80;99.90
39371;DHT22;25099;51.946;4.838;2023-04-03T00:40:10;8.30;99.90
39371;DHT22;25099;51.946;4.838;2023-04-03T00:42:37;7.80;99.90
39371;DHT22;25099;51.946;4.838;2023-04-03T00:47:30;7.80;99.90
39371;DHT22;25099;51.946;4.838;2023-04-03T00:49:57;7.80;99.90
39371;DHT22;25099;51.946;4.838;2023-04-03T00:52:26;7.80;99.90
39371;DHT22;25099;51.946;4.838;2023-04-03T00:54:56;7.80;99.90
39371;DHT22;25099;51.946;4.838;2023-04-03T00:57:23;7.80;99.90
39371;DHT22;25099;51.946;4.838;2023-04-03T00:59:52;7.80;99.90
39371;DHT22;25099;51.946;4.838;2023-04-03T01:02:18;7.80;99.90
39371;DHT22;25099;51.946;4.838;2023-04-03T01:04:44;7.80;99.90
39371;DHT22;25099;51.946;4.838;2023-04-03T01:07:23;7.80;99.90
39371;DHT22;25099;51.946;4.838;2023-04-03T01:09:52;7.80;99.90
39371;DHT22;25099;51.946;4.838;2023-04-03T01:12:24;7.80;99.90
39371;DHT22;25099;51.946;4.838;2023-04-03T01:14:53;7.80;99.90
39371;DHT22;25099;51.946;4.838;2023-04-03T01:17:38;7.70;99.90
39371;DHT22;25099;51.946;4.838;2023-04-03T01:25:36;7.50;99.90
39371;DHT22;25099;51.946;4.838;2023-04-03T01:28:03;7.40;99.90
39371;DHT22;25099;51.946;4.838;2023-04-03T01:30:45;7.40;99.90
39371;DHT22;25099;51.946;4.838;2023-04-03T01:33:13;7.40;99.90
39371;DHT22;25099;51.946;4.838;2023-04-03T01:35:38;7.40;99.90
39371;DHT22;25099;51.946;4.838;2023-04-03T01:38:04;7.40;99.90
39371;DHT22;25099;51.946;4.838;2023-04-03T01:40:30;7.30;99.90
39371;DHT22;25099;51.946;4.838;2023-04-03T01:42:55;7.20;99.90
39371;DHT22;25099;51.946;4.838;2023-04-03T01:45:21;7.20;99.90
39371;DHT22;25099;51.946;4.838;2023-04-03T01:47:47;7.30;99.90
39371;DHT22;25099;51.946;4.838;2023-04-03T01:50:12;7.30;99.90
39371;DHT22;25099;51.946;4.838;2023-04-03T01:52:38;7.30;99.90
39371;DHT22;25099;51.946;4.838;2023-04-03T01:55:03;7.30;99.90
39371;DHT22;25099;51.946;4.838;2023-04-03T01:57:29;7.30;99.90
39371;DHT22;25099;51.946;4.838;2023-04-03T01:59:55;7.30;99.90
39371;DHT22;25099;51.946;4.838;2023-04-03T02:02:20;7.30;99.90
39371;DHT22;25099;51.946;4.838;2023-04-03T02:04:46;7.40;99.90
39371;DHT22;25099;51.946;4.838;2023-04-03T02:07:12;7.40;99.90
39371;DHT22;25099;51.946;4.838;2023-04-03T02:09:37;7.50;99.90
39371;DHT22;25099;51.946;4.838;2023-04-03T02:12:03;7.50;99.90
39371;DHT22;25099;51.946;4.838;2023-04-03T02:14:28;7.50;99.90
39371;DHT22;25099;51.946;4.838;2023-04-03T02:16:54;7.50;99.90
39371;DHT22;25099;51.946;4.838;2023-04-03T02:19:20;7.50;99.90
39371;DHT22;25099;51.946;4.838;2023-04-03T02:21:46;7.50;99.90
39371;DHT22;25099;51.946;4.838;2023-04-03T02:24:11;7.40;99.90
39371;DHT22;25099;51.946;4.838;2023-04-03T02:26:37;7.40;99.90
39371;DHT22;25099;51.946;4.838;2023-04-03T02:29:02;7.30;99.90
39371;DHT22;25099;51.946;4.838;2023-04-03T02:31:28;7.20;99.90
39371;DHT22;25099;51.946;4.838;2023-04-03T02:33:53;7.20;99.90
39371;DHT22;25099;51.946;4.838;2023-04-03T02:36:19;7.20;99.90
39371;DHT22;25099;51.946;4.838;2023-04-03T02:38:45;7.20;99.90
39371;DHT22;25099;51.946;4.838;2023-04-03T02:41:11;7.30;99.90
39371;DHT22;25099;51.946;4.838;2023-04-03T02:43:37;7.30;99.90
39371;DHT22;25099;51.946;4.838;2023-04-03T02:46:04;7.30;99.90
39371;DHT22;25099;51.946;4.838;2023-04-03T02:48:29;7.30;99.90
39371;DHT22;25099;51.946;4.838;2023-04-03T02:50:55;7.30;99.90
39371;DHT22;25099;51.946;4.838;2023-04-03T02:53:21;7.30;99.90
39371;DHT22;25099;51.946;4.838;2023-04-03T02:55:47;7.30;99.90
39371;DHT22;25099;51.946;4.838;2023-04-03T02:58:12;7.30;99.90
39371;DHT22;25099;51.946;4.838;2023-04-03T03:00:38;7.40;99.90
39371;DHT22;25099;51.946;4.838;2023-04-03T03:03:04;7.40;99.90
39371;DHT22;25099;51.946;4.838;2023-04-03T03:05:30;7.30;99.90
39371;DHT22;25099;51.946;4.838;2023-04-03T03:07:56;7.30;99.90
39371;DHT22;25099;51.946;4.838;2023-04-03T03:10:22;7.30;99.90
39371;DHT22;25099;51.946;4.838;2023-04-03T03:12:47;7.30;99.90
39371;DHT22;25099;51.946;4.838;2023-04-03T03:15:13;7.30;99.90
39371;DHT22;25099;51.946;4.838;2023-04-03T03:17:38;7.30;99.90
39371;DHT22;25099;51.946;4.838;2023-04-03T03:20:05;7.30;99.90
39371;DHT22;25099;51.946;4.838;2023-04-03T03:22:31;7.20;99.90
39371;DHT22;25099;51.946;4.838;2023-04-03T03:24:56;7.20;99.90
39371;DHT22;25099;51.946;4.838;2023-04-03T03:27:22;7.10;99.90
39371;DHT22;25099;51.946;4.838;2023-04-03T03:29:47;7.10;99.90
39371;DHT22;25099;51.946;4.838;2023-04-03T03:32:13;7.10;99.90
39371;DHT22;25099;51.946;4.838;2023-04-03T03:34:38;7.10;99.90
39371;DHT22;25099;51.946;4.838;2023-04-03T03:37:04;7.10;99.90
39371;DHT22;25099;51.946;4.838;2023-04-03T03:39:30;7.10;99.90
39371;DHT22;25099;51.946;4.838;2023-04-03T03:41:56;7.10;99.90
39371;DHT22;25099;51.946;4.838;2023-04-03T03:44:21;7.10;99.90
39371;DHT22;25099;51.946;4.838;2023-04-03T03:46:47;7.10;99.90
39371;DHT22;25099;51.946;4.838;2023-04-03T03:49:12;7.10;99.90
39371;DHT22;25099;51.946;4.838;2023-04-03T03:51:38;7.10;99.90
39371;DHT22;25099;51.946;4.838;2023-04-03T03:54:04;7.10;99.90
39371;DHT22;25099;51.946;4.838;2023-04-03T03:56:30;7.10;99.90
39371;DHT22;25099;51.946;4.838;2023-04-03T03:58:56;7.10;99.90
39371;DHT22;25099;51.946;4.838;2023-04-03T04:01:22;7.10;99.90
39371;DHT22;25099;51.946;4.838;2023-04-03T04:03:48;7.10;99.90
39371;DHT22;25099;51.946;4.838;2023-04-03T04:06:14;7.10;99.90
39371;DHT22;25099;51.946;4.838;2023-04-03T04:08:40;7.00;99.90
39371;DHT22;25099;51.946;4.838;2023-04-03T04:11:05;7.70;99.90
39371;DHT22;25099;51.946;4.838;2023-04-03T04:13:31;7.10;99.90
39371;DHT22;25099;51.946;4.838;2023-04-03T04:15:56;7.00;99.90
39371;DHT22;25099;51.946;4.838;2023-04-03T04:18:22;7.10;99.90
39371;DHT22;25099;51.946;4.838;2023-04-03T04:20:49;7.00;99.90
39371;DHT22;25099;51.946;4.838;2023-04-03T04:23:16;7.00;99.90
39371;DHT22;25099;51.946;4.838;2023-04-03T04:25:44;7.00;99.90
39371;DHT22;25099;51.946;4.838;2023-04-03T04:28:10;7.00;99.90
39371;DHT22;25099;51.946;4.838;2023-04-03T04:30:36;7.00;99.90
39371;DHT22;25099;51.946;4.838;2023-04-03T04:33:01;7.00;99.90
39371;DHT22;25099;51.946;4.838;2023-04-03T04:35:27;7.00;99.90
39371;DHT22;25099;51.946;4.838;2023-04-03T04:37:53;7.00;99.90
39371;DHT22;25099;51.946;4.838;2023-04-03T04:40:18;7.00;99.90
39371;DHT22;25099;51.946;4.838;2023-04-03T04:42:44;6.90;99.90
39371;DHT22;25099;51.946;4.838;2023-04-03T04:45:10;6.90;99.90
39371;DHT22;25099;51.946;4.838;2023-04-03T04:47:35;6.90;99.90
39371;DHT22;25099;51.946;4.838;2023-04-03T04:50:01;6.80;99.90
39371;DHT22;25099;51.946;4.838;2023-04-03T04:52:26;6.80;99.90
39371;DHT22;25099;51.946;4.838;2023-04-03T04:54:52;6.70;99.90
39371;DHT22;25099;51.946;4.838;2023-04-03T04:57:17;6.70;99.90
39371;DHT22;25099;51.946;4.838;2023-04-03T04:59:43;6.70;99.90
39371;DHT22;25099;51.946;4.838;2023-04-03T05:02:08;6.70;99.90
39371;DHT22;25099;51.946;4.838;2023-04-03T05:04:34;6.70;99.90
39371;DHT22;25099;51.946;4.838;2023-04-03T05:07:00;6.70;99.90
39371;DHT22;25099;51.946;4.838;2023-04-03T05:09:25;6.80;99.90
39371;DHT22;25099;51.946;4.838;2023-04-03T05:11:51;6.70;99.90
39371;DHT22;25099;51.946;4.838;2023-04-03T05:14:16;6.70;99.90
39371;DHT22;25099;51.946;4.838;2023-04-03T05:16:42;6.70;99.90
39371;DHT22;25099;51.946;4.838;2023-04-03T05:19:08;6.70;99.90
39371;DHT22;25099;51.946;4.838;2023-04-03T05:21:34;6.70;99.90
39371;DHT22;25099;51.946;4.838;2023-04-03T05:24:00;6.70;99.90
39371;DHT22;25099;51.946;4.838;2023-04-03T05:26:31;6.60;99.90
39371;DHT22;25099;51.946;4.838;2023-04-03T05:28:57;6.50;99.90
39371;DHT22;25099;51.946;4.838;2023-04-03T05:31:22;6.60;99.90
39371;DHT22;25099;51.946;4.838;2023-04-03T05:33:48;6.50;99.90
39371;DHT22;25099;51.946;4.838;2023-04-03T05:36:14;6.50;99.90
39371;DHT22;25099;51.946;4.838;2023-04-03T05:38:40;6.60;99.90
39371;DHT22;25099;51.946;4.838;2023-04-03T05:41:06;6.60;99.90
39371;DHT22;25099;51.946;4.838;2023-04-03T05:43:32;6.60;99.90
39371;DHT22;25099;51.946;4.838;2023-04-03T05:45:59;6.70;99.90
39371;DHT22;25099;51.946;4.838;2023-04-03T05:48:24;6.70;99.90
39371;DHT22;25099;51.946;4.838;2023-04-03T05:50:50;6.70;99.90
39371;DHT22;25099;51.946;4.838;2023-04-03T05:53:21;6.70;99.90
39371;DHT22;25099;51.946;4.838;2023-04-03T05:55:46;6.80;99.90
39371;DHT22;25099;51.946;4.838;2023-04-03T05:58:12;6.80;99.90
39371;DHT22;25099;51.946;4.838;2023-04-03T06:00:38;6.80;99.90
39371;DHT22;25099;51.946;4.838;2023-04-03T06:03:03;6.80;99.90
39371;DHT22;25099;51.946;4.838;2023-04-03T06:05:29;6.80;99.90
39371;DHT22;25099;51.946;4.838;2023-04-03T06:07:54;6.80;99.90
39371;DHT22;25099;51.946;4.838;2023-04-03T06:10:20;6.80;99.90
39371;DHT22;25099;51.946;4.838;2023-04-03T06:12:45;6.70;99.90
39371;DHT22;25099;51.946;4.838;2023-04-03T06:15:11;6.70;99.90
39371;DHT22;25099;51.946;4.838;2023-04-03T06:17:37;6.60;99.90
39371;DHT22;25099;51.946;4.838;2023-04-03T06:20:03;6.60;99.90
39371;DHT22;25099;51.946;4.838;2023-04-03T06:22:29;6.60;99.90
39371;DHT22;25099;51.946;4.838;2023-04-03T06:24:55;6.60;99.90
39371;DHT22;25099;51.946;4.838;2023-04-03T06:27:21;6.60;99.90
39371;DHT22;25099;51.946;4.838;2023-04-03T06:29:47;6.60;99.90
39371;DHT22;25099;51.946;4.838;2023-04-03T06:32:14;6.80;99.90
39371;DHT22;25099;51.946;4.838;2023-04-03T06:34:40;6.60;99.90
39371;DHT22;25099;51.946;4.838;2023-04-03T06:37:10;6.50;99.90
39371;DHT22;25099;51.946;4.838;2023-04-03T06:39:36;6.50;99.90
39371;DHT22;25099;51.946;4.838;2023-04-03T06:42:01;6.50;99.90
39371;DHT22;25099;51.946;4.838;2023-04-03T06:44:27;6.50;99.90
39371;DHT22;25099;51.946;4.838;2023-04-03T06:46:53;6.50;99.90
39371;DHT22;25099;51.946;4.838;2023-04-03T06:49:19;6.50;99.90
39371;DHT22;25099;51.946;4.838;2023-04-03T06:51:45;6.50;99.90
39371;DHT22;25099;51.946;4.838;2023-04-03T06:54:10;6.50;99.90
39371;DHT22;25099;51.946;4.838;2023-04-03T06:56:38;6.70;99.90
39371;DHT22;25099;51.946;4.838;2023-04-03T06:59:03;6.30;99.90
39371;DHT22;25099;51.946;4.838;2023-04-03T07:01:30;6.30;99.90
39371;DHT22;25099;51.946;4.838;2023-04-03T07:03:56;6.40;99.90
39371;DHT22;25099;51.946;4.838;2023-04-03T07:06:22;6.50;99.90
39371;DHT22;25099;51.946;4.838;2023-04-03T07:08:48;6.50;99.90
39371;DHT22;25099;51.946;4.838;2023-04-03T07:11:14;6.50;99.90
39371;DHT22;25099;51.946;4.838;2023-04-03T07:13:40;6.50;99.90
39371;DHT22;25099;51.946;4.838;2023-04-03T07:16:06;7.00;99.90
39371;DHT22;25099;51.946;4.838;2023-04-03T07:18:33;6.50;99.90
39371;DHT22;25099;51.946;4.838;2023-04-03T07:20:58;6.50;99.90
39371;DHT22;25099;51.946;4.838;2023-04-03T07:23:24;6.40;99.90
39371;DHT22;25099;51.946;4.838;2023-04-03T07:25:51;6.30;99.90
39371;DHT22;25099;51.946;4.838;2023-04-03T07:28:18;6.40;99.90
39371;DHT22;25099;51.946;4.838;2023-04-03T07:33:10;6.50;99.90
39371;DHT22;25099;51.946;4.838;2023-04-03T07:35:37;6.50;99.90
39371;DHT22;25099;51.946;4.838;2023-04-03T07:38:02;6.60;99.90
39371;DHT22;25099;51.946;4.838;2023-04-03T07:40:28;6.60;99.90
39371;DHT22;25099;51.946;4.838;2023-04-03T07:42:53;6.70;99.90
39371;DHT22;25099;51.946;4.838;2023-04-03T07:45:25;6.70;99.90
39371;DHT22;25099;51.946;4.838;2023-04-03T07:47:51;6.70;99.90
39371;DHT22;25099;51.946;4.838;2023-04-03T07:50:17;6.70;99.90
39371;DHT22;25099;51.946;4.838;2023-04-03T07:52:44;6.60;99.90
39371;DHT22;25099;51.946;4.838;2023-04-03T07:55:12;6.70;99.90
39371;DHT22;25099;51.946;4.838;2023-04-03T07:57:38;6.70;99.90
39371;DHT22;25099;51.946;4.838;2023-04-03T08:00:05;6.80;99.90
39371;DHT22;25099;51.946;4.838;2023-04-03T08:02:31;6.70;99.90
39371;DHT22;25099;51.946;4.838;2023-04-03T08:04:58;6.70;99.90
39371;DHT22;25099;51.946;4.838;2023-04-03T08:07:24;6.80;99.90
39371;DHT22;25099;51.946;4.838;2023-04-03T08:09:50;6.80;99.90
39371;DHT22;25099;51.946;4.838;2023-04-03T08:12:16;6.90;99.90
39371;DHT22;25099;51.946;4.838;2023-04-03T08:14:41;6.90;99.90
39371;DHT22;25099;51.946;4.838;2023-04-03T08:17:08;6.90;99.90
39371;DHT22;25099;51.946;4.838;2023-04-03T08:19:40;7.00;99.90
39371;DHT22;25099;51.946;4.838;2023-04-03T08:22:06;7.00;99.90
39371;DHT22;25099;51.946;4.838;2023-04-03T08:24:32;7.00;99.90
39371;DHT22;25099;51.946;4.838;2023-04-03T08:26:58;7.00;99.90
39371;DHT22;25099;51.946;4.838;2023-04-03T08:29:25;7.00;99.90
39371;DHT22;25099;51.946;4.838;2023-04-03T08:31:51;7.00;99.90
39371;DHT22;25099;51.946;4.838;2023-04-03T08:34:23;7.60;99.90
39371;DHT22;25099;51.946;4.838;2023-04-03T08:36:52;7.60;99.90
39371;DHT22;25099;51.946;4.838;2023-04-03T08:41:55;7.20;99.90
39371;DHT22;25099;51.946;4.838;2023-04-03T08:50:11;7.30;99.90
39371;DHT22;25099;51.946;4.838;2023-04-03T08:53:14;8.00;99.90
39371;DHT22;25099;51.946;4.838;2023-04-03T08:55:44;7.50;99.90
39371;DHT22;25099;51.946;4.838;2023-04-03T08:58:49;7.50;99.90
39371;DHT22;25099;51.946;4.838;2023-04-03T09:01:35;7.40;99.90
39371;DHT22;25099;51.946;4.838;2023-04-03T09:04:02;7.50;99.90
39371;DHT22;25099;51.946;4.838;2023-04-03T09:06:32;7.50;99.90
39371;DHT22;25099;51.946;4.838;2023-04-03T09:09:35;7.50;99.90
39371;DHT22;25099;51.946;4.838;2023-04-03T09:15:24;7.60;99.90
39371;DHT22;25099;51.946;4.838;2023-04-03T09:18:19;7.60;99.90
39371;DHT22;25099;51.946;4.838;2023-04-03T09:21:07;7.60;99.90
39371;DHT22;25099;51.946;4.838;2023-04-03T09:23:44;7.70;98.80
39371;DHT22;25099;51.946;4.838;2023-04-03T09:26:21;8.50;99.40
39371;DHT22;25099;51.946;4.838;2023-04-03T09:28:54;7.70;98.50
39371;DHT22;25099;51.946;4.838;2023-04-03T09:31:30;7.80;98.70
39371;DHT22;25099;51.946;4.838;2023-04-03T09:34:04;7.80;99.00
39371;DHT22;25099;51.946;4.838;2023-04-03T09:36:45;7.80;98.20
39371;DHT22;25099;51.946;4.838;2023-04-03T09:39:16;7.80;96.80
39371;DHT22;25099;51.946;4.838;2023-04-03T09:42:01;7.90;97.00
39371;DHT22;25099;51.946;4.838;2023-04-03T09:44:30;7.90;97.10
39371;DHT22;25099;51.946;4.838;2023-04-03T09:46:57;8.00;97.70
39371;DHT22;25099;51.946;4.838;2023-04-03T09:49:23;8.10;97.10
39371;DHT22;25099;51.946;4.838;2023-04-03T09:51:48;8.10;97.70
39371;DHT22;25099;51.946;4.838;2023-04-03T09:54:35;8.20;97.50
39371;DHT22;25099;51.946;4.838;2023-04-03T09:57:13;8.30;97.00
39371;DHT22;25099;51.946;4.838;2023-04-03T10:00:03;8.30;96.20
39371;DHT22;25099;51.946;4.838;2023-04-03T10:02:38;8.30;95.60
39371;DHT22;25099;51.946;4.838;2023-04-03T10:08:27;8.40;94.90
39371;DHT22;25099;51.946;4.838;2023-04-03T10:11:10;8.40;94.20
39371;DHT22;25099;51.946;4.838;2023-04-03T10:13:50;8.50;94.00
39371;DHT22;25099;51.946;4.838;2023-04-03T10:16:18;8.90;94.40
39371;DHT22;25099;51.946;4.838;2023-04-03T10:19:00;8.50;94.50
39371;DHT22;25099;51.946;4.838;2023-04-03T10:24:40;8.50;93.90
39371;DHT22;25099;51.946;4.838;2023-04-03T10:27:13;9.20;94.00
39371;DHT22;25099;51.946;4.838;2023-04-03T10:30:17;8.50;93.80
39371;DHT22;25099;51.946;4.838;2023-04-03T10:32:50;8.60;93.60
39371;DHT22;25099;51.946;4.838;2023-04-03T10:35:50;8.60;93.90
39371;DHT22;25099;51.946;4.838;2023-04-03T10:41:34;8.70;93.20
39371;DHT22;25099;51.946;4.838;2023-04-03T10:44:26;8.70;92.90
39371;DHT22;25099;51.946;4.838;2023-04-03T10:49:53;8.80;92.60
39371;DHT22;25099;51.946;4.838;2023-04-03T10:52:40;8.80;92.40
39371;DHT22;25099;51.946;4.838;2023-04-03T10:55:30;8.90;91.90
39371;DHT22;25099;51.946;4.838;2023-04-03T10:57:58;8.80;91.90
39371;DHT22;25099;51.946;4.838;2023-04-03T11:00:42;8.90;90.90
39371;DHT22;25099;51.946;4.838;2023-04-03T11:03:15;8.90;91.00
39371;DHT22;25099;51.946;4.838;2023-04-03T11:05:47;9.00;90.50
39371;DHT22;25099;51.946;4.838;2023-04-03T11:08:35;9.10;90.10
39371;DHT22;25099;51.946;4.838;2023-04-03T11:11:13;9.10;88.60
39371;DHT22;25099;51.946;4.838;2023-04-03T11:16:45;9.00;86.10
39371;DHT22;25099;51.946;4.838;2023-04-03T11:22:04;9.10;86.00
39371;DHT22;25099;51.946;4.838;2023-04-03T11:24:39;9.20;85.40
39371;DHT22;25099;51.946;4.838;2023-04-03T11:27:18;9.70;84.30
39371;DHT22;25099;51.946;4.838;2023-04-03T11:30:00;9.60;82.90
39371;DHT22;25099;51.946;4.838;2023-04-03T11:35:38;9.20;85.70
39371;DHT22;25099;51.946;4.838;2023-04-03T11:38:21;9.30;86.90
39371;DHT22;25099;51.946;4.838;2023-04-03T11:40:58;9.30;84.10
39371;DHT22;25099;51.946;4.838;2023-04-03T11:46:55;9.40;87.10
39371;DHT22;25099;51.946;4.838;2023-04-03T11:49:53;9.40;83.70
39371;DHT22;25099;51.946;4.838;2023-04-03T12:13:41;9.80;87.40
39371;DHT22;25099;51.946;4.838;2023-04-03T12:16:19;9.70;89.20
39371;DHT22;25099;51.946;4.838;2023-04-03T12:21:16;10.10;88.50
39371;DHT22;25099;51.946;4.838;2023-04-03T12:32:40;9.90;88.50
39371;DHT22;25099;51.946;4.838;2023-04-03T12:35:37;9.90;89.30
39371;DHT22;25099;51.946;4.838;2023-04-03T12:38:33;10.00;89.20
39371;DHT22;25099;51.946;4.838;2023-04-03T12:46:14;10.00;90.00
39371;DHT22;25099;51.946;4.838;2023-04-03T12:51:14;10.10;90.30
39371;DHT22;25099;51.946;4.838;2023-04-03T12:53:40;10.10;90.40
39371;DHT22;25099;51.946;4.838;2023-04-03T12:56:28;10.20;90.60
39371;DHT22;25099;51.946;4.838;2023-04-03T12:59:12;10.20;89.40
39371;DHT22;25099;51.946;4.838;2023-04-03T13:01:38;10.60;90.40
39371;DHT22;25099;51.946;4.838;2023-04-03T13:04:03;10.20;90.30
39371;DHT22;25099;51.946;4.838;2023-04-03T13:06:40;10.40;90.30
39371;DHT22;25099;51.946;4.838;2023-04-03T13:09:14;10.30;90.30
39371;DHT22;25099;51.946;4.838;2023-04-03T13:11:44;10.40;89.30
39371;DHT22;25099;51.946;4.838;2023-04-03T13:14:40;10.50;88.80
39371;DHT22;25099;51.946;4.838;2023-04-03T13:17:29;10.50;89.40
39371;DHT22;25099;51.946;4.838;2023-04-03T13:20:19;11.20;90.50
39371;DHT22;25099;51.946;4.838;2023-04-03T13:23:10;10.60;90.70
39371;DHT22;25099;51.946;4.838;2023-04-03T13:25:36;10.70;87.90
39371;DHT22;25099;51.946;4.838;2023-04-03T13:28:06;10.70;88.30
39371;DHT22;25099;51.946;4.838;2023-04-03T13:30:37;10.70;87.90
39371;DHT22;25099;51.946;4.838;2023-04-03T13:33:06;10.70;88.10
39371;DHT22;25099;51.946;4.838;2023-04-03T13:35:43;11.20;88.30
39371;DHT22;25099;51.946;4.838;2023-04-03T13:38:30;10.80;88.20
39371;DHT22;25099;51.946;4.838;2023-04-03T13:41:02;10.90;88.40
39371;DHT22;25099;51.946;4.838;2023-04-03T13:43:35;11.00;88.50
39371;DHT22;25099;51.946;4.838;2023-04-03T13:48:42;11.00;88.20
39371;DHT22;25099;51.946;4.838;2023-04-03T13:54:00;11.00;88.20
39371;DHT22;25099;51.946;4.838;2023-04-03T13:56:34;11.00;89.10
39371;DHT22;25099;51.946;4.838;2023-04-03T14:07:12;11.20;87.30
39371;DHT22;25099;51.946;4.838;2023-04-03T14:09:38;11.20;88.60
39371;DHT22;25099;51.946;4.838;2023-04-03T14:12:08;11.30;89.00
39371;DHT22;25099;51.946;4.838;2023-04-03T14:14:37;11.40;88.10
39371;DHT22;25099;51.946;4.838;2023-04-03T14:17:14;11.40;87.30
39371;DHT22;25099;51.946;4.838;2023-04-03T14:19:47;11.60;87.60
39371;DHT22;25099;51.946;4.838;2023-04-03T14:22:32;11.90;87.10
39371;DHT22;25099;51.946;4.838;2023-04-03T14:25:00;11.40;88.00
39371;DHT22;25099;51.946;4.838;2023-04-03T14:27:41;12.10;89.50
39371;DHT22;25099;51.946;4.838;2023-04-03T14:30:30;11.50;88.50
39371;DHT22;25099;51.946;4.838;2023-04-03T14:35:42;11.60;90.00
39371;DHT22;25099;51.946;4.838;2023-04-03T14:40:50;13.20;89.30
39371;DHT22;25099;51.946;4.838;2023-04-03T14:43:16;12.40;89.10
39371;DHT22;25099;51.946;4.838;2023-04-03T14:45:58;11.80;88.50
39371;DHT22;25099;51.946;4.838;2023-04-03T14:48:24;12.30;89.40
39371;DHT22;25099;51.946;4.838;2023-04-03T14:51:11;11.80;88.40
39371;DHT22;25099;51.946;4.838;2023-04-03T14:53:54;11.60;88.60
39371;DHT22;25099;51.946;4.838;2023-04-03T14:56:26;12.60;87.40
39371;DHT22;25099;51.946;4.838;2023-04-03T14:59:00;12.00;88.00
39371;DHT22;25099;51.946;4.838;2023-04-03T15:01:27;12.00;87.30
39371;DHT22;25099;51.946;4.838;2023-04-03T15:03:53;12.10;87.80
39371;DHT22;25099;51.946;4.838;2023-04-03T15:06:20;12.10;88.00
39371;DHT22;25099;51.946;4.838;2023-04-03T15:08:47;12.20;87.30
39371;DHT22;25099;51.946;4.838;2023-04-03T15:11:14;12.30;88.10
39371;DHT22;25099;51.946;4.838;2023-04-03T15:13:49;12.30;87.00
39371;DHT22;25099;51.946;4.838;2023-04-03T15:16:19;12.20;88.40
39371;DHT22;25099;51.946;4.838;2023-04-03T15:18:45;12.20;87.00
39371;DHT22;25099;51.946;4.838;2023-04-03T15:21:12;12.20;87.70
39371;DHT22;25099;51.946;4.838;2023-04-03T15:23:38;12.30;88.10
39371;DHT22;25099;51.946;4.838;2023-04-03T15:26:03;12.50;87.90
39371;DHT22;25099;51.946;4.838;2023-04-03T15:28:33;12.60;87.40
39371;DHT22;25099;51.946;4.838;2023-04-03T15:30:59;12.60;87.70
39371;DHT22;25099;51.946;4.838;2023-04-03T15:33:26;12.70;86.40
39371;DHT22;25099;51.946;4.838;2023-04-03T15:35:51;12.70;85.50
39371;DHT22;25099;51.946;4.838;2023-04-03T15:38:35;12.60;86.40
39371;DHT22;25099;51.946;4.838;2023-04-03T15:41:22;13.10;88.50
39371;DHT22;25099;51.946;4.838;2023-04-03T15:43:59;12.80;88.30
39371;DHT22;25099;51.946;4.838;2023-04-03T15:46:25;13.00;88.70
39371;DHT22;25099;51.946;4.838;2023-04-03T15:49:09;13.10;88.70
39371;DHT22;25099;51.946;4.838;2023-04-03T15:51:35;13.00;87.70
39371;DHT22;25099;51.946;4.838;2023-04-03T15:54:16;12.30;88.00
39371;DHT22;25099;51.946;4.838;2023-04-03T15:56:42;13.90;88.40
39371;DHT22;25099;51.946;4.838;2023-04-03T15:59:07;12.70;88.50
39371;DHT22;25099;51.946;4.838;2023-04-03T16:01:33;13.90;88.60
39371;DHT22;25099;51.946;4.838;2023-04-03T16:03:59;13.50;88.80
39371;DHT22;25099;51.946;4.838;2023-04-03T16:06:40;12.80;89.40
39371;DHT22;25099;51.946;4.838;2023-04-03T16:09:06;13.40;88.80
39371;DHT22;25099;51.946;4.838;2023-04-03T16:11:32;13.00;88.60
39371;DHT22;25099;51.946;4.838;2023-04-03T16:14:12;13.30;89.40
39371;DHT22;25099;51.946;4.838;2023-04-03T16:16:38;13.50;88.90
39371;DHT22;25099;51.946;4.838;2023-04-03T16:19:04;13.00;87.70
39371;DHT22;25099;51.946;4.838;2023-04-03T16:21:31;13.00;88.40
39371;DHT22;25099;51.946;4.838;2023-04-03T16:24:09;13.20;88.30
39371;DHT22;25099;51.946;4.838;2023-04-03T16:26:35;13.10;88.70
39371;DHT22;25099;51.946;4.838;2023-04-03T16:29:00;13.10;88.80
39371;DHT22;25099;51.946;4.838;2023-04-03T16:31:26;13.10;88.50
39371;DHT22;25099;51.946;4.838;2023-04-03T16:33:55;13.10;89.20
39371;DHT22;25099;51.946;4.838;2023-04-03T16:36:20;13.10;90.20
39371;DHT22;25099;51.946;4.838;2023-04-03T16:38:46;13.10;90.20
39371;DHT22;25099;51.946;4.838;2023-04-03T16:41:12;13.20;88.80
39371;DHT22;25099;51.946;4.838;2023-04-03T16:43:37;13.20;87.70
39371;DHT22;25099;51.946;4.838;2023-04-03T16:46:03;13.10;87.70
39371;DHT22;25099;51.946;4.838;2023-04-03T16:48:30;13.10;89.20
39371;DHT22;25099;51.946;4.838;2023-04-03T16:50:56;13.00;90.00
39371;DHT22;25099;51.946;4.838;2023-04-03T16:53:22;13.50;89.90
39371;DHT22;25099;51.946;4.838;2023-04-03T16:55:48;13.10;89.10
39371;DHT22;25099;51.946;4.838;2023-04-03T16:58:14;13.10;88.30
39371;DHT22;25099;51.946;4.838;2023-04-03T17:00:59;13.10;87.90
39371;DHT22;25099;51.946;4.838;2023-04-03T17:06:44;13.00;88.80
39371;DHT22;25099;51.946;4.838;2023-04-03T17:09:10;12.90;89.50
39371;DHT22;25099;51.946;4.838;2023-04-03T17:11:45;13.60;90.20
39371;DHT22;25099;51.946;4.838;2023-04-03T17:14:32;13.20;90.30
39371;DHT22;25099;51.946;4.838;2023-04-03T17:17:20;13.70;90.40
39371;DHT22;25099;51.946;4.838;2023-04-03T17:22:36;12.50;90.30
39371;DHT22;25099;51.946;4.838;2023-04-03T17:25:19;13.60;90.90
39371;DHT22;25099;51.946;4.838;2023-04-03T17:27:57;13.00;90.40
39371;DHT22;25099;51.946;4.838;2023-04-03T17:30:41;12.50;90.30
39371;DHT22;25099;51.946;4.838;2023-04-03T17:33:28;13.00;90.20
39371;DHT22;25099;51.946;4.838;2023-04-03T17:35:58;12.30;90.20
39371;DHT22;25099;51.946;4.838;2023-04-03T17:38:38;12.20;90.30
39371;DHT22;25099;51.946;4.838;2023-04-03T17:41:17;12.40;90.70
39371;DHT22;25099;51.946;4.838;2023-04-03T17:43:43;12.20;90.90
39371;DHT22;25099;51.946;4.838;2023-04-03T17:46:32;12.30;90.80
39371;DHT22;25099;51.946;4.838;2023-04-03T17:49:16;11.60;91.00
39371;DHT22;25099;51.946;4.838;2023-04-03T17:51:43;12.00;91.20
39371;DHT22;25099;51.946;4.838;2023-04-03T17:54:29;12.00;91.10